createdAt,value
2023-04-21T00:00:18.145Z,1015.08
2023-04-21T00:01:18.136Z,1015.11
2023-04-21T00:02:18.185Z,1015.09
2023-04-21T00:03:18.386Z,1015.11
2023-04-21T00:04:18.255Z,1015.10
2023-04-21T00:05:18.346Z,1015.10
2023-04-21T00:06:18.111Z,1015.09
2023-04-21T00:07:18.107Z,1015.06
2023-04-21T00:08:18.102Z,1015.07
2023-04-21T00:09:18.309Z,1015.09
2023-04-21T00:10:18.107Z,1015.07
2023-04-21T00:11:18.152Z,1015.09
2023-04-21T00:12:18.105Z,1015.12
2023-04-21T00:13:18.089Z,1015.04
2023-04-21T00:14:18.094Z,1015.05
2023-04-21T00:15:18.144Z,1015.07
2023-04-21T00:16:18.188Z,1015.03
2023-04-21T00:17:18.071Z,1015.04
2023-04-21T00:18:18.071Z,1015.07
2023-04-21T00:19:18.339Z,1015.05
2023-04-21T00:20:18.067Z,1015.03
2023-04-21T00:21:18.076Z,1015.08
2023-04-21T00:22:18.078Z,1015.06
2023-04-21T00:23:18.048Z,1015.05
2023-04-21T00:24:18.043Z,1015.09
2023-04-21T00:25:18.062Z,1015.08
2023-04-21T00:26:18.081Z,1015.06
2023-04-21T00:27:18.039Z,1015.10
2023-04-21T00:28:18.097Z,1015.05
2023-04-21T00:29:18.429Z,1015.09
2023-04-21T00:30:18.055Z,1015.06
2023-04-21T00:31:18.100Z,1015.01
2023-04-21T00:32:18.080Z,1015.05
2023-04-21T00:33:18.052Z,1015.04
2023-04-21T00:34:18.029Z,1014.99
2023-04-21T00:35:18.034Z,1015.01
2023-04-21T00:36:18.065Z,1015.02
2023-04-21T00:37:18.024Z,1014.98
2023-04-21T00:38:18.126Z,1015.00
2023-04-21T00:39:18.348Z,1014.99
2023-04-21T00:40:18.006Z,1015.02
2023-04-21T00:41:18.013Z,1015.00
2023-04-21T00:42:18.001Z,1014.94
2023-04-21T00:43:17.987Z,1014.97
2023-04-21T00:44:17.981Z,1014.97
2023-04-21T00:45:17.987Z,1014.95
2023-04-21T00:46:18.001Z,1014.94
2023-04-21T00:47:18.082Z,1014.95
2023-04-21T00:48:17.999Z,1014.98
2023-04-21T00:49:18.355Z,1014.94
2023-04-21T00:50:18.017Z,1014.99
2023-04-21T00:51:18.030Z,1014.97
2023-04-21T00:52:17.961Z,1014.98
2023-04-21T00:53:17.948Z,1014.97
2023-04-21T00:54:17.957Z,1014.98
2023-04-21T00:55:17.963Z,1014.97
2023-04-21T00:56:17.952Z,1014.94
2023-04-21T00:57:17.940Z,1014.94
2023-04-21T00:58:17.936Z,1014.95
2023-04-21T00:59:18.182Z,1014.93
2023-04-21T01:00:17.926Z,1014.96
2023-04-21T01:01:17.960Z,1014.98
2023-04-21T01:02:17.992Z,1014.94
2023-04-21T01:03:18.260Z,1014.93
2023-04-21T01:04:17.922Z,1014.92
2023-04-21T01:05:17.914Z,1014.94
2023-04-21T01:06:17.900Z,1014.89
2023-04-21T01:07:17.904Z,1014.91
2023-04-21T01:08:17.966Z,1014.88
2023-04-21T01:09:18.322Z,1014.87
2023-04-21T01:10:17.899Z,1014.89
2023-04-21T01:11:17.892Z,1014.89
2023-04-21T01:12:17.888Z,1014.90
2023-04-21T01:13:17.881Z,1014.91
2023-04-21T01:14:17.866Z,1014.93
2023-04-21T01:15:17.875Z,1014.92
2023-04-21T01:16:17.925Z,1014.90
2023-04-21T01:17:17.855Z,1014.92
2023-04-21T01:18:17.876Z,1014.90
2023-04-21T01:19:18.023Z,1014.84
2023-04-21T01:20:17.862Z,1014.92
2023-04-21T01:21:17.855Z,1014.83
2023-04-21T01:22:17.834Z,1014.82
2023-04-21T01:23:17.830Z,1014.85
2023-04-21T01:24:17.833Z,1014.83
2023-04-21T01:25:17.838Z,1014.82
2023-04-21T01:26:17.823Z,1014.85
2023-04-21T01:27:17.817Z,1014.84
2023-04-21T01:28:17.819Z,1014.84
2023-04-21T01:29:18.216Z,1014.79
2023-04-21T01:30:17.798Z,1014.82
2023-04-21T01:31:17.849Z,1014.77
2023-04-21T01:32:17.907Z,1014.77
2023-04-21T01:33:17.825Z,1014.79
2023-04-21T01:34:17.799Z,1014.86
2023-04-21T01:35:17.793Z,1014.80
2023-04-21T01:36:17.798Z,1014.74
2023-04-21T01:37:17.818Z,1014.79
2023-04-21T01:38:19.312Z,1014.79
2023-04-21T01:39:17.990Z,1014.79
2023-04-21T01:40:17.771Z,1014.81
2023-04-21T01:41:17.761Z,1014.80
2023-04-21T01:42:17.784Z,1014.78
2023-04-21T01:43:17.774Z,1014.77
2023-04-21T01:44:17.759Z,1014.73
2023-04-21T01:45:17.761Z,1014.76
2023-04-21T01:46:17.763Z,1014.77
2023-04-21T01:47:17.836Z,1014.77
2023-04-21T01:48:17.849Z,1014.79
2023-04-21T01:49:18.031Z,1014.80
2023-04-21T01:50:17.737Z,1014.77
2023-04-21T01:51:17.737Z,1014.78
2023-04-21T01:52:17.767Z,1014.76
2023-04-21T01:53:17.721Z,1014.75
2023-04-21T01:54:17.720Z,1014.78
2023-04-21T01:55:17.718Z,1014.75
2023-04-21T01:56:17.704Z,1014.75
2023-04-21T01:57:17.808Z,1014.74
2023-04-21T01:58:17.702Z,1014.76
2023-04-21T01:59:17.885Z,1014.72
2023-04-21T02:00:17.731Z,1014.70
2023-04-21T02:01:17.751Z,1014.72
2023-04-21T02:02:17.784Z,1014.70
2023-04-21T02:03:17.841Z,1014.70
2023-04-21T02:04:17.813Z,1014.72
2023-04-21T02:05:17.685Z,1014.66
2023-04-21T02:06:17.673Z,1014.66
2023-04-21T02:07:17.673Z,1014.67
2023-04-21T02:08:17.663Z,1014.62
2023-04-21T02:09:18.206Z,1014.59
2023-04-21T02:10:17.658Z,1014.63
2023-04-21T02:11:17.650Z,1014.61
2023-04-21T02:12:17.638Z,1014.60
2023-04-21T02:13:17.642Z,1014.57
2023-04-21T02:14:17.665Z,1014.59
2023-04-21T02:15:17.681Z,1014.60
2023-04-21T02:16:17.662Z,1014.58
2023-04-21T02:17:17.690Z,1014.61
2023-04-21T02:18:17.621Z,1014.61
2023-04-21T02:19:17.868Z,1014.55
2023-04-21T02:20:17.606Z,1014.58
2023-04-21T02:21:17.605Z,1014.58
2023-04-21T02:22:17.622Z,1014.55
2023-04-21T02:23:17.596Z,1014.57
2023-04-21T02:24:17.620Z,1014.53
2023-04-21T02:25:17.596Z,1014.54
2023-04-21T02:26:17.586Z,1014.54
2023-04-21T02:27:17.685Z,1014.53
2023-04-21T02:28:17.585Z,1014.52
2023-04-21T02:29:17.779Z,1014.52
2023-04-21T02:30:17.571Z,1014.53
2023-04-21T02:31:17.629Z,1014.49
2023-04-21T02:32:25.502Z,1014.46
2023-04-21T02:33:17.575Z,1014.55
2023-04-21T02:34:17.561Z,1014.49
2023-04-21T02:35:17.559Z,1014.49
2023-04-21T02:36:17.579Z,1014.51
2023-04-21T02:37:17.578Z,1014.51
2023-04-21T02:38:17.565Z,1014.47
2023-04-21T02:39:17.682Z,1014.44
2023-04-21T02:40:17.541Z,1014.48
2023-04-21T02:41:17.521Z,1014.47
2023-04-21T02:42:17.539Z,1014.48
2023-04-21T02:43:17.518Z,1014.45
2023-04-21T02:44:17.538Z,1014.51
2023-04-21T02:45:17.497Z,1014.50
2023-04-21T02:46:17.552Z,1014.52
2023-04-21T02:47:17.498Z,1014.48
2023-04-21T02:48:17.489Z,1014.48
2023-04-21T02:49:17.852Z,1014.51
2023-04-21T02:50:17.478Z,1014.47
2023-04-21T02:51:17.467Z,1014.47
2023-04-21T02:52:17.491Z,1014.44
2023-04-21T02:53:17.491Z,1014.48
2023-04-21T02:54:17.459Z,1014.44
2023-04-21T02:55:17.471Z,1014.45
2023-04-21T02:56:17.478Z,1014.41
2023-04-21T02:57:17.456Z,1014.40
2023-04-21T02:58:17.456Z,1014.42
2023-04-21T02:59:17.488Z,1014.46
2023-04-21T03:00:17.449Z,1014.42
2023-04-21T03:01:17.588Z,1014.44
2023-04-21T03:02:17.482Z,1014.44
2023-04-21T03:03:17.522Z,1014.44
2023-04-21T03:04:17.721Z,1014.43
2023-04-21T03:05:17.419Z,1014.42
2023-04-21T03:06:17.408Z,1014.43
2023-04-21T03:07:17.424Z,1014.40
2023-04-21T03:08:17.406Z,1014.39
2023-04-21T03:09:17.550Z,1014.37
2023-04-21T03:10:17.406Z,1014.37
2023-04-21T03:11:17.400Z,1014.40
2023-04-21T03:12:17.386Z,1014.44
2023-04-21T03:13:17.378Z,1014.41
2023-04-21T03:14:17.372Z,1014.36
2023-04-21T03:15:17.384Z,1014.34
2023-04-21T03:16:17.393Z,1014.40
2023-04-21T03:17:17.435Z,1014.35
2023-04-21T03:18:17.382Z,1014.40
2023-04-21T03:19:17.541Z,1014.38
2023-04-21T03:20:17.365Z,1014.36
2023-04-21T03:21:17.341Z,1014.39
2023-04-21T03:22:17.406Z,1014.41
2023-04-21T03:23:17.338Z,1014.33
2023-04-21T03:24:17.332Z,1014.37
2023-04-21T03:25:17.332Z,1014.42
2023-04-21T03:26:17.330Z,1014.37
2023-04-21T03:27:17.331Z,1014.35
2023-04-21T03:28:17.323Z,1014.40
2023-04-21T03:29:17.357Z,1014.37
2023-04-21T03:30:17.307Z,1014.38
2023-04-21T03:31:17.298Z,1014.37
2023-04-21T03:32:17.350Z,1014.41
2023-04-21T03:33:17.290Z,1014.43
2023-04-21T03:34:17.361Z,1014.46
2023-04-21T03:35:17.310Z,1014.37
2023-04-21T03:36:17.303Z,1014.45
2023-04-21T03:37:17.310Z,1014.47
2023-04-21T03:38:17.282Z,1014.40
2023-04-21T03:39:20.122Z,1014.39
2023-04-21T03:40:17.268Z,1014.45
2023-04-21T03:41:17.270Z,1014.39
2023-04-21T03:42:17.361Z,1014.40
2023-04-21T03:43:17.251Z,1014.40
2023-04-21T03:44:17.258Z,1014.42
2023-04-21T03:45:17.294Z,1014.44
2023-04-21T03:46:17.307Z,1014.41
2023-04-21T03:47:17.232Z,1014.44
2023-04-21T03:48:17.233Z,1014.43
2023-04-21T03:49:17.224Z,1014.42
2023-04-21T03:50:17.250Z,1014.43
2023-04-21T03:51:17.217Z,1014.46
2023-04-21T03:52:17.216Z,1014.44
2023-04-21T03:53:17.212Z,1014.36
2023-04-21T03:54:17.217Z,1014.39
2023-04-21T03:55:17.264Z,1014.39
2023-04-21T03:56:17.198Z,1014.39
2023-04-21T03:57:17.199Z,1014.46
2023-04-21T03:58:17.178Z,1014.38
2023-04-21T03:59:17.601Z,1014.40
2023-04-21T04:00:17.244Z,1014.39
2023-04-21T04:01:17.177Z,1014.40
2023-04-21T04:02:17.227Z,1014.41
2023-04-21T04:03:17.473Z,1014.47
2023-04-21T04:04:17.405Z,1014.46
2023-04-21T04:05:17.231Z,1014.49
2023-04-21T04:06:17.174Z,1014.48
2023-04-21T04:07:17.143Z,1014.50
2023-04-21T04:08:17.141Z,1014.46
2023-04-21T04:09:17.287Z,1014.45
2023-04-21T04:10:17.156Z,1014.53
2023-04-21T04:11:17.125Z,1014.50
2023-04-21T04:12:17.121Z,1014.48
2023-04-21T04:13:17.140Z,1014.49
2023-04-21T04:14:17.164Z,1014.44
2023-04-21T04:15:17.106Z,1014.48
2023-04-21T04:16:17.172Z,1014.50
2023-04-21T04:17:17.112Z,1014.48
2023-04-21T04:18:17.100Z,1014.50
2023-04-21T04:19:17.357Z,1014.54
2023-04-21T04:20:17.093Z,1014.50
2023-04-21T04:21:17.075Z,1014.49
2023-04-21T04:22:17.076Z,1014.53
2023-04-21T04:23:17.091Z,1014.50
2023-04-21T04:24:17.081Z,1014.53
2023-04-21T04:25:17.123Z,1014.51
2023-04-21T04:26:17.070Z,1014.58
2023-04-21T04:27:17.058Z,1014.60
2023-04-21T04:28:17.097Z,1014.58
2023-04-21T04:29:17.156Z,1014.60
2023-04-21T04:30:17.036Z,1014.58
2023-04-21T04:31:17.084Z,1014.61
2023-04-21T04:32:17.042Z,1014.60
2023-04-21T04:33:17.023Z,1014.58
2023-04-21T04:34:17.020Z,1014.59
2023-04-21T04:35:17.049Z,1014.56
2023-04-21T04:36:17.007Z,1014.60
2023-04-21T04:37:17.000Z,1014.60
2023-04-21T04:38:17.019Z,1014.60
2023-04-21T04:39:17.064Z,1014.65
2023-04-21T04:40:16.993Z,1014.64
2023-04-21T04:41:17.050Z,1014.60
2023-04-21T04:42:16.984Z,1014.64
2023-04-21T04:43:17.010Z,1014.67
2023-04-21T04:44:17.043Z,1014.62
2023-04-21T04:45:16.983Z,1014.63
2023-04-21T04:46:16.988Z,1014.60
2023-04-21T04:47:16.965Z,1014.67
2023-04-21T04:48:16.971Z,1014.63
2023-04-21T04:49:16.948Z,1014.68
2023-04-21T04:50:16.973Z,1014.65
2023-04-21T04:51:16.964Z,1014.67
2023-04-21T04:52:16.982Z,1014.66
2023-04-21T04:53:16.948Z,1014.74
2023-04-21T04:54:17.070Z,1014.68
2023-04-21T04:55:16.942Z,1014.70
2023-04-21T04:56:16.942Z,1014.69
2023-04-21T04:57:16.920Z,1014.68
2023-04-21T04:58:16.917Z,1014.71
2023-04-21T04:59:16.897Z,1014.72
2023-04-21T05:00:17.008Z,1014.69
2023-04-21T05:01:16.900Z,1014.72
2023-04-21T05:02:16.975Z,1014.72
2023-04-21T05:03:17.050Z,1014.75
2023-04-21T05:04:17.334Z,1014.70
2023-04-21T05:05:16.975Z,1014.74
2023-04-21T05:06:16.876Z,1014.76
2023-04-21T05:07:16.871Z,1014.73
2023-04-21T05:08:18.121Z,1014.72
2023-04-21T05:09:16.870Z,1014.74
2023-04-21T05:10:16.895Z,1014.75
2023-04-21T05:11:16.860Z,1014.78
2023-04-21T05:12:16.850Z,1014.76
2023-04-21T05:13:16.855Z,1014.73
2023-04-21T05:14:16.887Z,1014.75
2023-04-21T05:15:16.839Z,1014.75
2023-04-21T05:16:16.886Z,1014.80
2023-04-21T05:17:16.858Z,1014.78
2023-04-21T05:18:16.867Z,1014.79
2023-04-21T05:19:18.660Z,1014.75
2023-04-21T05:20:16.831Z,1014.78
2023-04-21T05:21:16.844Z,1014.83
2023-04-21T05:22:16.802Z,1014.79
2023-04-21T05:23:16.801Z,1014.84
2023-04-21T05:24:16.846Z,1014.83
2023-04-21T05:25:16.807Z,1014.78
2023-04-21T05:26:16.802Z,1014.79
2023-04-21T05:27:16.811Z,1014.79
2023-04-21T05:28:16.789Z,1014.83
2023-04-21T05:29:16.797Z,1014.75
2023-04-21T05:30:16.795Z,1014.84
2023-04-21T05:31:16.799Z,1014.83
2023-04-21T05:32:16.802Z,1014.82
2023-04-21T05:33:16.790Z,1014.82
2023-04-21T05:34:16.759Z,1014.85
2023-04-21T05:35:16.767Z,1014.82
2023-04-21T05:36:16.763Z,1014.81
2023-04-21T05:37:16.745Z,1014.84
2023-04-21T05:38:16.753Z,1014.81
2023-04-21T05:39:16.739Z,1014.81
2023-04-21T05:40:16.755Z,1014.80
2023-04-21T05:41:16.743Z,1014.84
2023-04-21T05:42:16.741Z,1014.80
2023-04-21T05:43:16.744Z,1014.83
2023-04-21T05:44:16.904Z,1014.83
2023-04-21T05:45:16.731Z,1014.86
2023-04-21T05:46:16.774Z,1014.82
2023-04-21T05:47:16.708Z,1014.84
2023-04-21T05:48:16.743Z,1014.84
2023-04-21T05:49:16.896Z,1014.84
2023-04-21T05:50:16.723Z,1014.89
2023-04-21T05:51:16.728Z,1014.79
2023-04-21T05:52:16.707Z,1014.81
2023-04-21T05:53:16.701Z,1014.82
2023-04-21T05:54:16.896Z,1014.83
2023-04-21T05:55:16.701Z,1014.81
2023-04-21T05:56:16.694Z,1014.82
2023-04-21T05:57:16.736Z,1014.79
2023-04-21T05:58:16.698Z,1014.85
2023-04-21T05:59:16.684Z,1014.85
2023-04-21T06:00:16.663Z,1014.81
2023-04-21T06:01:16.672Z,1014.81
2023-04-21T06:02:16.754Z,1014.82
2023-04-21T06:03:16.747Z,1014.82
2023-04-21T06:04:16.979Z,1014.84
2023-04-21T06:05:16.699Z,1014.81
2023-04-21T06:06:16.710Z,1014.83
2023-04-21T06:07:18.218Z,1014.76
2023-04-21T06:08:16.778Z,1014.81
2023-04-21T06:09:16.630Z,1014.77
2023-04-21T06:10:16.700Z,1014.76
2023-04-21T06:11:16.634Z,1014.80
2023-04-21T06:12:16.705Z,1014.78
2023-04-21T06:13:16.646Z,1014.78
2023-04-21T06:14:16.634Z,1014.78
2023-04-21T06:15:16.617Z,1014.80
2023-04-21T06:16:16.642Z,1014.91
2023-04-21T06:17:16.610Z,1014.83
2023-04-21T06:18:16.630Z,1014.89
2023-04-21T06:19:16.641Z,1014.87
2023-04-21T06:20:16.605Z,1014.92
2023-04-21T06:21:16.663Z,1014.89
2023-04-21T06:22:16.609Z,1014.90
2023-04-21T06:23:16.647Z,1014.90
2023-04-21T06:24:16.723Z,1014.89
2023-04-21T06:25:16.611Z,1014.88
2023-04-21T06:26:16.581Z,1014.87
2023-04-21T06:27:16.630Z,1014.86
2023-04-21T06:28:16.604Z,1014.90
2023-04-21T06:29:16.617Z,1014.89
2023-04-21T06:30:16.657Z,1014.90
2023-04-21T06:31:16.770Z,1014.84
2023-04-21T06:32:16.615Z,1014.90
2023-04-21T06:33:16.635Z,1014.87
2023-04-21T06:34:16.690Z,1014.86
2023-04-21T06:35:16.701Z,1014.88
2023-04-21T06:36:17.985Z,1014.93
2023-04-21T06:37:16.624Z,1014.89
2023-04-21T06:38:16.638Z,1014.90
2023-04-21T06:39:16.654Z,1014.89
2023-04-21T06:40:16.702Z,1014.85
2023-04-21T06:41:16.657Z,1014.87
2023-04-21T06:42:16.701Z,1014.90
2023-04-21T06:43:16.673Z,1014.86
2023-04-21T06:44:16.819Z,1014.90
2023-04-21T06:45:16.694Z,1014.87
2023-04-21T06:46:16.701Z,1014.92
2023-04-21T06:47:16.876Z,1014.85
2023-04-21T06:48:16.798Z,1014.93
2023-04-21T06:49:16.961Z,1014.95
2023-04-21T06:50:16.753Z,1014.91
2023-04-21T06:51:16.765Z,1014.87
2023-04-21T06:52:18.210Z,1014.87
2023-04-21T06:53:16.774Z,1014.85
2023-04-21T06:54:16.784Z,1014.84
2023-04-21T06:55:16.790Z,1014.90
2023-04-21T06:56:16.824Z,1014.86
2023-04-21T06:57:16.812Z,1014.85
2023-04-21T06:58:17.663Z,1014.84
2023-04-21T06:59:16.874Z,1014.83
2023-04-21T07:00:16.847Z,1014.83
2023-04-21T07:01:16.938Z,1014.85
2023-04-21T07:02:16.967Z,1014.83
2023-04-21T07:03:16.945Z,1014.85
2023-04-21T07:04:16.905Z,1014.80
2023-04-21T07:05:16.912Z,1014.84
2023-04-21T07:06:16.917Z,1014.85
2023-04-21T07:07:16.936Z,1014.88
2023-04-21T07:08:16.942Z,1014.86
2023-04-21T07:09:17.148Z,1014.86
2023-04-21T07:10:17.872Z,1014.90
2023-04-21T07:11:16.980Z,1014.85
2023-04-21T07:12:16.982Z,1014.85
2023-04-21T07:13:17.001Z,1014.85
2023-04-21T07:14:17.028Z,1014.85
2023-04-21T07:15:17.032Z,1014.84
2023-04-21T07:16:17.073Z,1014.83
2023-04-21T07:17:17.049Z,1014.84
2023-04-21T07:18:17.129Z,1014.85
2023-04-21T07:19:17.181Z,1014.87
2023-04-21T07:20:17.085Z,1014.87
2023-04-21T07:21:17.129Z,1014.86
2023-04-21T07:22:17.116Z,1014.84
2023-04-21T07:23:17.170Z,1014.88
2023-04-21T07:24:17.154Z,1014.84
2023-04-21T07:25:17.166Z,1014.86
2023-04-21T07:26:17.168Z,1014.86
2023-04-21T07:27:17.199Z,1014.86
2023-04-21T07:28:17.228Z,1014.87
2023-04-21T07:29:17.321Z,1014.84
2023-04-21T07:30:17.234Z,1014.84
2023-04-21T07:31:17.293Z,1014.86
2023-04-21T07:32:17.244Z,1014.86
2023-04-21T07:33:17.284Z,1014.89
2023-04-21T07:34:17.277Z,1014.83
2023-04-21T07:35:17.300Z,1014.83
2023-04-21T07:36:17.302Z,1014.78
2023-04-21T07:37:17.340Z,1014.82
2023-04-21T07:38:17.319Z,1014.81
2023-04-21T07:39:17.760Z,1014.81
2023-04-21T07:40:17.401Z,1014.79
2023-04-21T07:41:17.355Z,1014.83
2023-04-21T07:42:17.394Z,1014.79
2023-04-21T07:43:17.394Z,1014.78
2023-04-21T07:44:17.413Z,1014.86
2023-04-21T07:45:17.432Z,1014.81
2023-04-21T07:46:17.458Z,1014.81
2023-04-21T07:47:17.445Z,1014.79
2023-04-21T07:48:17.535Z,1014.80
2023-04-21T07:49:17.735Z,1014.77
2023-04-21T07:50:17.492Z,1014.78
2023-04-21T07:51:17.507Z,1014.79
2023-04-21T07:52:17.497Z,1014.81
2023-04-21T07:53:17.655Z,1014.80
2023-04-21T07:54:17.534Z,1014.74
2023-04-21T07:55:17.556Z,1014.81
2023-04-21T07:56:17.572Z,1014.77
2023-04-21T07:57:17.575Z,1014.74
2023-04-21T07:58:17.602Z,1014.81
2023-04-21T07:59:17.837Z,1014.79
2023-04-21T08:00:17.657Z,1014.79
2023-04-21T08:01:17.639Z,1014.78
2023-04-21T08:02:17.678Z,1014.77
2023-04-21T08:03:17.737Z,1014.77
2023-04-21T08:04:18.090Z,1014.79
2023-04-21T08:05:17.861Z,1014.80
2023-04-21T08:06:17.896Z,1014.73
2023-04-21T08:07:17.711Z,1014.78
2023-04-21T08:08:17.717Z,1014.70
2023-04-21T08:09:17.873Z,1014.69
2023-04-21T08:10:17.751Z,1014.69
2023-04-21T08:11:17.789Z,1014.73
2023-04-21T08:12:17.774Z,1014.70
2023-04-21T08:13:17.789Z,1014.67
2023-04-21T08:14:17.969Z,1014.66
2023-04-21T08:15:17.879Z,1014.67
2023-04-21T08:16:18.040Z,1014.69
2023-04-21T08:17:17.862Z,1014.67
2023-04-21T08:18:19.235Z,1014.67
2023-04-21T08:19:18.157Z,1014.63
2023-04-21T08:20:17.888Z,1014.64
2023-04-21T08:21:17.900Z,1014.61
2023-04-21T08:22:17.891Z,1014.64
2023-04-21T08:23:17.969Z,1014.61
2023-04-21T08:24:18.124Z,1014.62
2023-04-21T08:25:17.930Z,1014.59
2023-04-21T08:26:17.921Z,1014.63
2023-04-21T08:27:17.937Z,1014.60
2023-04-21T08:28:17.948Z,1014.61
2023-04-21T08:29:18.018Z,1014.56
2023-04-21T08:30:17.967Z,1014.58
2023-04-21T08:31:18.026Z,1014.54
2023-04-21T08:32:17.993Z,1014.53
2023-04-21T08:33:18.016Z,1014.51
2023-04-21T08:34:18.101Z,1014.51
2023-04-21T08:35:18.003Z,1014.50
2023-04-21T08:36:28.455Z,1014.50
2023-04-21T08:37:18.033Z,1014.52
2023-04-21T08:38:18.050Z,1014.45
2023-04-21T08:39:18.167Z,1014.48
2023-04-21T08:40:18.035Z,1014.52
2023-04-21T08:41:18.046Z,1014.54
2023-04-21T08:42:18.037Z,1014.47
2023-04-21T08:43:18.045Z,1014.52
2023-04-21T08:44:18.205Z,1014.45
2023-04-21T08:45:18.053Z,1014.43
2023-04-21T08:46:18.074Z,1014.48
2023-04-21T08:47:18.076Z,1014.45
2023-04-21T08:48:18.062Z,1014.49
2023-04-21T08:49:18.488Z,1014.43
2023-04-21T08:50:18.081Z,1014.44
2023-04-21T08:51:18.137Z,1014.41
2023-04-21T08:52:18.105Z,1014.46
2023-04-21T08:53:18.101Z,1014.48
2023-04-21T08:54:18.084Z,1014.47
2023-04-21T08:55:18.141Z,1014.44
2023-04-21T08:56:18.129Z,1014.44
2023-04-21T08:57:18.120Z,1014.40
2023-04-21T08:58:18.110Z,1014.41
2023-04-21T08:59:18.431Z,1014.41
2023-04-21T09:00:18.132Z,1014.40
2023-04-21T09:01:18.271Z,1014.41
2023-04-21T09:02:18.272Z,1014.42
2023-04-21T09:03:25.360Z,1014.38
2023-04-21T09:04:18.303Z,1014.38
2023-04-21T09:05:18.405Z,1014.42
2023-04-21T09:06:18.385Z,1014.40
2023-04-21T09:07:18.128Z,1014.41
2023-04-21T09:08:18.146Z,1014.39
2023-04-21T09:09:18.454Z,1014.35
2023-04-21T09:10:18.137Z,1014.37
2023-04-21T09:11:18.165Z,1014.42
2023-04-21T09:12:18.146Z,1014.34
2023-04-21T09:13:18.160Z,1014.36
2023-04-21T09:14:18.150Z,1014.36
2023-04-21T09:15:18.175Z,1014.38
2023-04-21T09:16:18.229Z,1014.34
2023-04-21T09:17:18.193Z,1014.37
2023-04-21T09:18:18.177Z,1014.34
2023-04-21T09:19:18.436Z,1014.36
2023-04-21T09:20:18.171Z,1014.41
2023-04-21T09:21:18.252Z,1014.33
2023-04-21T09:22:18.184Z,1014.33
2023-04-21T09:23:18.172Z,1014.33
2023-04-21T09:24:18.190Z,1014.34
2023-04-21T09:25:18.188Z,1014.31
2023-04-21T09:26:18.184Z,1014.35
2023-04-21T09:27:18.198Z,1014.38
2023-04-21T09:28:18.202Z,1014.34
2023-04-21T09:29:18.429Z,1014.34
2023-04-21T09:30:18.178Z,1014.37
2023-04-21T09:31:18.355Z,1014.34
2023-04-21T09:32:18.190Z,1014.28
2023-04-21T09:33:28.881Z,1014.32
2023-04-21T09:34:18.211Z,1014.28
2023-04-21T09:35:18.204Z,1014.26
2023-04-21T09:36:18.195Z,1014.27
2023-04-21T09:37:19.151Z,1014.26
2023-04-21T09:38:18.207Z,1014.23
2023-04-21T09:39:30.444Z,1014.26
2023-04-21T09:40:18.411Z,1014.21
2023-04-21T09:41:18.212Z,1014.22
2023-04-21T09:42:18.210Z,1014.22
2023-04-21T09:43:18.210Z,1014.27
2023-04-21T09:44:18.946Z,1014.19
2023-04-21T09:45:32.981Z,1014.19
2023-04-21T09:46:18.290Z,1014.16
2023-04-21T09:47:18.288Z,1014.22
2023-04-21T09:48:19.437Z,1014.19
2023-04-21T09:49:18.240Z,1014.21
2023-04-21T09:52:19.456Z,1014.22
2023-04-21T09:53:18.241Z,1014.21
2023-04-21T09:54:29.025Z,1014.19
2023-04-21T09:55:18.249Z,1014.16
2023-04-21T09:56:18.241Z,1014.19
2023-04-21T09:57:18.244Z,1014.20
2023-04-21T09:58:18.237Z,1014.16
2023-04-21T09:59:18.241Z,1014.16
2023-04-21T10:00:18.246Z,1014.15
2023-04-21T10:01:18.304Z,1014.14
2023-04-21T10:02:18.422Z,1014.13
2023-04-21T10:03:18.360Z,1014.17
2023-04-21T10:04:18.788Z,1014.12
2023-04-21T10:05:18.316Z,1014.11
2023-04-21T10:06:18.245Z,1014.08
2023-04-21T10:07:18.261Z,1014.04
2023-04-21T10:08:18.250Z,1014.06
2023-04-21T10:09:18.301Z,1014.10
2023-04-21T10:10:18.291Z,1014.06
2023-04-21T10:11:18.259Z,1014.07
2023-04-21T10:12:18.263Z,1014.05
2023-04-21T10:13:18.273Z,1014.09
2023-04-21T10:14:18.672Z,1014.06
2023-04-21T10:15:18.334Z,1014.07
2023-04-21T10:16:18.454Z,1014.08
2023-04-21T10:17:18.400Z,1014.08
2023-04-21T10:18:18.348Z,1014.06
2023-04-21T10:19:18.593Z,1014.03
2023-04-21T10:20:18.293Z,1014.02
2023-04-21T10:21:18.315Z,1014.05
2023-04-21T10:22:18.681Z,1014.00
2023-04-21T10:23:18.288Z,1014.01
2023-04-21T10:24:18.652Z,1013.92
2023-04-21T10:25:18.303Z,1013.97
2023-04-21T10:26:18.338Z,1013.96
2023-04-21T10:27:18.284Z,1013.95
2023-04-21T10:28:18.288Z,1013.92
2023-04-21T10:29:18.520Z,1013.93
2023-04-21T10:30:18.330Z,1013.87
2023-04-21T10:31:18.325Z,1013.92
2023-04-21T10:32:18.358Z,1013.90
2023-04-21T10:33:18.299Z,1013.93
2023-04-21T10:34:18.515Z,1013.92
2023-04-21T10:35:18.305Z,1013.86
2023-04-21T10:36:18.302Z,1013.87
2023-04-21T10:37:18.322Z,1013.89
2023-04-21T10:38:18.318Z,1013.83
2023-04-21T10:39:18.559Z,1013.88
2023-04-21T10:40:18.312Z,1013.82
2023-04-21T10:41:18.308Z,1013.80
2023-04-21T10:42:18.310Z,1013.85
2023-04-21T10:43:18.316Z,1013.84
2023-04-21T10:44:18.781Z,1013.76
2023-04-21T10:45:18.345Z,1013.74
2023-04-21T10:46:18.358Z,1013.78
2023-04-21T10:47:18.419Z,1013.77
2023-04-21T10:48:18.335Z,1013.77
2023-04-21T10:49:18.352Z,1013.76
2023-04-21T10:50:18.340Z,1013.71
2023-04-21T10:51:18.327Z,1013.72
2023-04-21T10:52:18.324Z,1013.72
2023-04-21T10:53:18.323Z,1013.67
2023-04-21T10:54:18.682Z,1013.69
2023-04-21T10:55:18.342Z,1013.71
2023-04-21T10:56:18.348Z,1013.67
2023-04-21T10:57:18.374Z,1013.61
2023-04-21T10:58:18.352Z,1013.61
2023-04-21T10:59:18.352Z,1013.63
2023-04-21T11:00:18.342Z,1013.60
2023-04-21T11:01:18.433Z,1013.61
2023-04-21T11:02:18.531Z,1013.55
2023-04-21T11:03:18.617Z,1013.51
2023-04-21T11:04:18.662Z,1013.49
2023-04-21T11:05:18.359Z,1013.53
2023-04-21T11:06:18.345Z,1013.47
2023-04-21T11:07:18.364Z,1013.49
2023-04-21T11:08:18.343Z,1013.51
2023-04-21T11:09:18.348Z,1013.44
2023-04-21T11:10:18.373Z,1013.46
2023-04-21T11:11:18.357Z,1013.47
2023-04-21T11:12:18.403Z,1013.46
2023-04-21T11:13:18.363Z,1013.45
2023-04-21T11:14:18.570Z,1013.43
2023-04-21T11:15:18.362Z,1013.42
2023-04-21T11:16:18.433Z,1013.41
2023-04-21T11:17:18.360Z,1013.43
2023-04-21T11:18:18.359Z,1013.42
2023-04-21T11:19:18.347Z,1013.43
2023-04-21T11:20:18.400Z,1013.40
2023-04-21T11:21:18.638Z,1013.31
2023-04-21T11:22:18.391Z,1013.37
2023-04-21T11:23:18.941Z,1013.38
2023-04-21T11:24:18.689Z,1013.43
2023-04-21T11:25:18.362Z,1013.36
2023-04-21T11:26:18.376Z,1013.34
2023-04-21T11:27:18.358Z,1013.26
2023-04-21T11:28:18.378Z,1013.28
2023-04-21T11:29:18.371Z,1013.31
2023-04-21T11:30:18.369Z,1013.32
2023-04-21T11:31:18.397Z,1013.30
2023-04-21T11:32:18.374Z,1013.32
2023-04-21T11:33:18.445Z,1013.25
2023-04-21T11:34:18.622Z,1013.25
2023-04-21T11:35:18.382Z,1013.25
2023-04-21T11:36:18.380Z,1013.30
2023-04-21T11:37:18.410Z,1013.31
2023-04-21T11:38:18.455Z,1013.26
2023-04-21T11:39:20.877Z,1013.29
2023-04-21T11:40:18.389Z,1013.26
2023-04-21T11:41:18.412Z,1013.19
2023-04-21T11:42:18.397Z,1013.22
2023-04-21T11:43:18.395Z,1013.15
2023-04-21T11:44:18.409Z,1013.20
2023-04-21T11:45:21.297Z,1013.09
2023-04-21T11:46:18.527Z,1013.17
2023-04-21T11:47:18.396Z,1013.10
2023-04-21T11:48:18.396Z,1013.14
2023-04-21T11:49:18.419Z,1013.11
2023-04-21T11:50:18.418Z,1013.08
2023-04-21T11:51:20.706Z,1013.14
2023-04-21T11:52:18.438Z,1013.09
2023-04-21T11:53:18.414Z,1013.08
2023-04-21T11:54:18.403Z,1013.06
2023-04-21T11:55:18.417Z,1013.15
2023-04-21T11:56:18.418Z,1013.18
2023-04-21T11:57:18.408Z,1013.08
2023-04-21T11:58:18.424Z,1013.10
2023-04-21T11:59:18.409Z,1013.09
2023-04-21T12:00:18.434Z,1013.10
2023-04-21T12:01:18.410Z,1013.06
2023-04-21T12:02:18.519Z,1013.09
2023-04-21T12:03:18.530Z,1013.05
2023-04-21T12:04:18.589Z,1013.05
2023-04-21T12:05:18.466Z,1013.07
2023-04-21T12:06:18.512Z,1013.04
2023-04-21T12:07:18.437Z,1013.01